createdAt,value
2023-03-20T00:02:21.768Z,14.52
2023-03-20T00:04:48.505Z,15.27
2023-03-20T00:07:15.337Z,13.80
2023-03-20T00:09:42.419Z,17.65
2023-03-20T00:12:16.398Z,15.45
2023-03-20T00:14:43.188Z,15.52
2023-03-20T00:17:20.361Z,16.80
2023-03-20T00:19:47.410Z,14.32
2023-03-20T00:22:16.009Z,15.95
2023-03-20T00:24:42.737Z,14.65
2023-03-20T00:27:14.502Z,14.15
2023-03-20T00:29:41.372Z,15.93
2023-03-20T00:32:15.082Z,15.57
2023-03-20T00:34:42.327Z,15.60
2023-03-20T00:37:11.515Z,14.30
2023-03-20T00:39:38.255Z,17.23
2023-03-20T00:42:07.636Z,14.95
2023-03-20T00:44:42.784Z,15.98
2023-03-20T00:47:20.631Z,14.93
2023-03-20T00:49:50.763Z,14.23
2023-03-20T00:52:19.239Z,14.77
2023-03-20T00:54:46.297Z,16.17
2023-03-20T00:57:42.990Z,15.88
2023-03-20T01:00:28.910Z,15.55
2023-03-20T01:02:57.858Z,14.30
2023-03-20T01:05:27.449Z,15.27
2023-03-20T01:07:55.839Z,16.15
2023-03-20T01:10:29.967Z,16.73
2023-03-20T01:13:01.617Z,17.52
2023-03-20T01:15:34.088Z,16.48
2023-03-20T01:18:01.025Z,15.93
2023-03-20T01:20:30.911Z,16.67
2023-03-20T01:22:57.577Z,17.38
2023-03-20T01:25:24.574Z,19.33
2023-03-20T01:27:54.302Z,20.75
2023-03-20T01:30:31.070Z,18.83
2023-03-20T01:32:59.995Z,18.85
2023-03-20T01:35:28.233Z,18.00
2023-03-20T01:37:57.891Z,16.05
2023-03-20T01:40:47.951Z,17.67
2023-03-20T01:43:20.193Z,17.02
2023-03-20T01:46:00.354Z,15.10
2023-03-20T01:48:58.015Z,15.27
2023-03-20T01:51:33.017Z,19.17
2023-03-20T01:54:22.472Z,17.42
2023-03-20T01:57:15.028Z,16.98
2023-03-20T01:59:51.211Z,23.42
2023-03-20T02:02:27.088Z,17.92
2023-03-20T02:05:05.768Z,19.80
2023-03-20T02:07:35.259Z,19.70
2023-03-20T02:10:12.585Z,21.25
2023-03-20T02:12:58.967Z,20.58
2023-03-20T02:15:31.972Z,18.33
2023-03-20T02:18:12.098Z,17.00
2023-03-20T02:21:04.554Z,21.85
2023-03-20T02:23:59.105Z,18.92
2023-03-20T02:27:17.355Z,23.95
2023-03-20T02:30:18.327Z,25.48
2023-03-20T02:33:09.886Z,21.70
2023-03-20T02:36:01.595Z,22.38
2023-03-20T02:38:46.300Z,22.63
2023-03-20T02:41:51.533Z,29.27
2023-03-20T02:44:46.228Z,22.10
2023-03-20T02:47:32.588Z,27.40
2023-03-20T02:50:10.289Z,25.55
2023-03-20T02:53:00.288Z,22.33
2023-03-20T02:55:34.354Z,23.83
2023-03-20T02:58:11.836Z,22.98
2023-03-20T03:00:52.291Z,23.83
2023-03-20T03:04:07.728Z,22.67
2023-03-20T03:06:39.411Z,21.60
2023-03-20T03:09:31.657Z,22.80
2023-03-20T03:12:10.600Z,27.10
2023-03-20T03:15:10.807Z,33.55
2023-03-20T03:17:39.695Z,33.20
2023-03-20T03:20:21.497Z,27.67
2023-03-20T03:22:49.634Z,25.85
2023-03-20T03:25:16.516Z,23.27
2023-03-20T03:27:48.468Z,23.90
2023-03-20T03:30:24.734Z,24.20
2023-03-20T03:33:13.016Z,27.43
2023-03-20T03:35:40.861Z,24.13
2023-03-20T03:38:25.598Z,26.35
2023-03-20T03:41:30.770Z,25.58
2023-03-20T03:44:27.259Z,24.58
2023-03-20T03:47:09.271Z,24.25
2023-03-20T03:49:42.610Z,27.17
2023-03-20T03:52:16.645Z,28.85
2023-03-20T03:54:49.368Z,29.30
2023-03-20T03:57:45.579Z,28.23
2023-03-20T04:00:21.426Z,26.85
2023-03-20T04:02:53.226Z,27.58
2023-03-20T04:05:21.291Z,26.52
2023-03-20T04:07:56.523Z,25.60
2023-03-20T04:10:23.517Z,25.15
2023-03-20T04:12:50.345Z,22.70
2023-03-20T04:15:18.024Z,24.48
2023-03-20T04:17:45.257Z,26.40
2023-03-20T04:20:16.128Z,19.90
2023-03-20T04:22:42.886Z,20.40
2023-03-20T04:25:24.884Z,21.27
2023-03-20T04:27:54.239Z,19.92
2023-03-20T04:30:34.941Z,18.58
2023-03-20T04:33:14.149Z,21.73
2023-03-20T04:35:47.809Z,21.10
2023-03-20T04:38:17.056Z,20.92
2023-03-20T04:40:46.685Z,22.98
2023-03-20T04:43:15.266Z,20.40
2023-03-20T04:45:42.439Z,22.70
2023-03-20T04:48:10.222Z,18.50
2023-03-20T04:50:37.330Z,20.98
2023-03-20T04:53:05.762Z,19.90
2023-03-20T04:55:33.175Z,21.52
2023-03-20T04:58:00.007Z,17.95
2023-03-20T05:00:28.142Z,17.60
2023-03-20T05:02:55.282Z,16.63
2023-03-20T05:05:23.576Z,14.40
2023-03-20T05:07:52.029Z,15.85
2023-03-20T05:10:32.264Z,17.30
2023-03-20T05:13:05.706Z,22.17
2023-03-20T05:16:01.981Z,19.90
2023-03-20T05:18:48.974Z,21.40
2023-03-20T05:21:51.176Z,25.33
2023-03-20T05:24:32.130Z,23.88
2023-03-20T05:27:32.994Z,27.35
2023-03-20T05:30:20.668Z,22.17
2023-03-20T05:33:06.207Z,24.20
2023-03-20T05:35:41.848Z,30.13
2023-03-20T05:38:22.767Z,23.05
2023-03-20T05:41:27.819Z,28.10
2023-03-20T05:44:26.736Z,30.25
2023-03-20T05:47:19.524Z,28.58
2023-03-20T05:50:03.821Z,29.08
2023-03-20T05:52:50.859Z,30.85
2023-03-20T05:55:49.643Z,28.20
2023-03-20T05:58:16.302Z,29.60
2023-03-20T06:00:45.956Z,25.98
2023-03-20T06:03:38.610Z,28.20
2023-03-20T06:06:11.968Z,26.45
2023-03-20T06:08:38.734Z,25.73
2023-03-20T06:11:06.627Z,26.17
2023-03-20T06:13:36.110Z,29.92
2023-03-20T06:16:04.207Z,24.50
2023-03-20T06:18:31.169Z,25.85
2023-03-20T06:20:58.816Z,26.00
2023-03-20T06:23:28.349Z,29.58
2023-03-20T06:25:55.213Z,22.10
2023-03-20T06:28:22.413Z,24.17
2023-03-20T06:30:57.185Z,25.40
2023-03-20T06:33:24.373Z,22.33
2023-03-20T06:35:59.697Z,22.60
2023-03-20T06:38:28.966Z,22.77
2023-03-20T06:40:55.953Z,23.85
2023-03-20T06:43:23.214Z,21.52
2023-03-20T06:45:53.037Z,20.10
2023-03-20T06:48:25.740Z,22.77
2023-03-20T06:50:53.183Z,24.00
2023-03-20T06:53:22.690Z,25.25
2023-03-20T06:55:59.698Z,22.17
2023-03-20T06:58:27.032Z,22.65
2023-03-20T07:00:54.662Z,19.55
2023-03-20T07:03:21.970Z,17.65
2023-03-20T07:05:50.234Z,18.25
2023-03-20T07:08:18.124Z,13.02
2023-03-20T07:10:44.848Z,16.85
2023-03-20T07:13:14.342Z,15.85
2023-03-20T07:15:57.445Z,18.10
2023-03-20T07:18:29.745Z,11.90
2023-03-20T07:21:05.133Z,15.95
2023-03-20T07:23:34.403Z,16.80
2023-03-20T07:26:02.013Z,11.93
2023-03-20T07:28:29.201Z,17.95
2023-03-20T07:31:20.426Z,10.80
2023-03-20T07:33:48.865Z,12.20
2023-03-20T07:36:15.849Z,11.05
2023-03-20T07:38:43.905Z,13.55
2023-03-20T07:41:11.273Z,16.67
2023-03-20T07:43:43.051Z,15.05
2023-03-20T07:46:20.642Z,13.30
2023-03-20T07:48:47.439Z,14.43
2023-03-20T07:51:14.169Z,15.82
2023-03-20T07:53:40.848Z,19.45
2023-03-20T07:56:08.375Z,13.27
2023-03-20T07:58:36.139Z,16.25
2023-03-20T08:01:05.896Z,13.82
2023-03-20T08:03:32.839Z,13.13
2023-03-20T08:06:00.312Z,18.55
2023-03-20T08:08:29.897Z,13.25
2023-03-20T08:10:56.576Z,16.05
2023-03-20T08:13:23.278Z,15.40
2023-03-20T08:15:49.929Z,15.90
2023-03-20T08:18:16.725Z,15.95
2023-03-20T08:20:43.492Z,14.07
2023-03-20T08:23:10.164Z,12.80
2023-03-20T08:25:37.049Z,17.90
2023-03-20T08:28:04.402Z,12.43
2023-03-20T08:30:31.878Z,9.68
2023-03-20T08:32:59.091Z,11.18
2023-03-20T08:35:45.579Z,14.30
2023-03-20T08:38:15.709Z,14.70
2023-03-20T08:40:42.858Z,12.85
2023-03-20T08:43:09.843Z,10.25
2023-03-20T08:45:36.972Z,13.35
2023-03-20T08:48:04.792Z,10.23
2023-03-20T08:50:31.702Z,9.65
2023-03-20T08:52:58.535Z,10.40
2023-03-20T08:55:25.343Z,12.60
2023-03-20T08:57:58.582Z,10.43
2023-03-20T09:00:25.706Z,10.85
2023-03-20T09:02:52.569Z,10.30
2023-03-20T09:05:19.300Z,10.13
2023-03-20T09:07:46.413Z,9.48
2023-03-20T09:10:13.392Z,10.48
2023-03-20T09:12:42.258Z,9.02
2023-03-20T09:15:09.743Z,10.52
2023-03-20T09:17:36.621Z,5.80
2023-03-20T09:20:05.280Z,7.97
2023-03-20T09:22:33.625Z,9.05
2023-03-20T09:25:00.364Z,10.57
2023-03-20T09:27:27.154Z,12.68
2023-03-20T09:29:53.892Z,8.75
2023-03-20T09:32:20.598Z,12.77
2023-03-20T09:34:47.407Z,9.50
2023-03-20T09:37:14.105Z,8.50
2023-03-20T09:39:40.788Z,8.95
2023-03-20T09:42:42.525Z,10.05
2023-03-20T09:45:56.573Z,6.57
2023-03-20T09:48:52.465Z,9.13
2023-03-20T09:52:00.514Z,9.50
2023-03-20T09:54:30.256Z,8.05
2023-03-20T09:56:58.186Z,10.82
2023-03-20T09:59:30.576Z,9.20
2023-03-20T10:02:14.090Z,11.27
2023-03-20T10:04:42.801Z,10.70
2023-03-20T10:07:15.548Z,8.45
2023-03-20T10:09:43.181Z,10.80
2023-03-20T10:12:57.036Z,6.80
2023-03-20T10:15:54.468Z,10.48
2023-03-20T10:18:30.140Z,10.55
2023-03-20T10:21:13.630Z,6.47
2023-03-20T10:24:00.228Z,7.22
2023-03-20T10:26:28.523Z,9.65
2023-03-20T10:28:59.068Z,9.55
2023-03-20T10:32:11.116Z,7.80
2023-03-20T10:35:04.894Z,6.47
2023-03-20T10:37:59.464Z,7.38
2023-03-20T10:40:32.478Z,8.40
2023-03-20T10:43:04.220Z,8.73
2023-03-20T10:45:58.391Z,8.25
2023-03-20T10:48:41.898Z,10.85
2023-03-20T10:51:22.455Z,6.53
2023-03-20T10:53:57.068Z,7.63
2023-03-20T10:56:42.287Z,12.95
2023-03-20T10:59:27.382Z,11.85
2023-03-20T11:01:54.922Z,8.68
2023-03-20T11:04:21.832Z,12.32
2023-03-20T11:07:22.589Z,12.43
2023-03-20T11:10:07.935Z,13.13
2023-03-20T11:12:39.481Z,8.87
2023-03-20T11:15:33.009Z,6.75
2023-03-20T11:18:03.903Z,7.10
2023-03-20T11:20:43.934Z,7.03
2023-03-20T11:23:17.557Z,9.85
2023-03-20T11:25:56.902Z,9.63
2023-03-20T11:28:42.149Z,6.85
2023-03-20T11:31:11.646Z,6.17
2023-03-20T11:33:42.524Z,7.75
2023-03-20T11:36:28.200Z,6.82
2023-03-20T11:41:34.875Z,8.13
2023-03-20T11:44:01.607Z,7.68
2023-03-20T11:46:28.412Z,7.00
2023-03-20T11:49:20.833Z,9.75
2023-03-20T11:51:47.728Z,6.78
2023-03-20T11:54:20.729Z,7.72
2023-03-20T11:57:01.249Z,5.53
2023-03-20T11:59:35.604Z,8.98
2023-03-20T12:02:17.031Z,5.80
2023-03-20T12:04:45.740Z,5.60
2023-03-20T12:07:29.763Z,5.45
2023-03-20T12:10:05.972Z,5.82
2023-03-20T12:13:00.322Z,5.38
2023-03-20T12:15:38.206Z,6.90
2023-03-20T12:18:24.829Z,7.18
2023-03-20T12:21:12.909Z,5.00
2023-03-20T12:24:02.383Z,4.85
2023-03-20T12:27:06.134Z,9.43
2023-03-20T12:29:47.949Z,6.85
2023-03-20T12:32:24.218Z,8.77
2023-03-20T12:34:57.370Z,10.40
2023-03-20T12:37:24.113Z,5.20
2023-03-20T12:40:01.599Z,7.30
2023-03-20T12:42:53.105Z,6.97
2023-03-20T12:45:31.517Z,10.10
2023-03-20T12:48:32.071Z,5.72
2023-03-20T12:51:01.386Z,5.00
2023-03-20T12:54:15.538Z,8.30
2023-03-20T12:57:23.801Z,9.50
2023-03-20T13:00:21.014Z,9.18
2023-03-20T13:03:26.525Z,6.30
2023-03-20T13:06:11.090Z,8.13
2023-03-20T13:08:49.737Z,5.68
2023-03-20T13:11:47.558Z,10.00
2023-03-20T13:15:06.621Z,7.57
2023-03-20T13:17:52.490Z,7.85
2023-03-20T13:20:33.521Z,6.40
2023-03-20T13:23:22.705Z,3.90
2023-03-20T13:26:13.895Z,6.75
2023-03-20T13:29:03.713Z,7.22
2023-03-20T13:31:57.433Z,6.55
2023-03-20T13:35:03.017Z,9.57
2023-03-20T13:37:44.745Z,7.10
2023-03-20T13:40:30.670Z,5.18
2023-03-20T13:43:24.697Z,6.20
2023-03-20T13:46:02.340Z,9.18
2023-03-20T13:48:36.980Z,4.53
2023-03-20T13:51:35.569Z,5.75
2023-03-20T13:54:27.019Z,7.93
2023-03-20T13:57:21.343Z,8.82
2023-03-20T14:00:44.808Z,10.57
2023-03-20T14:03:41.025Z,6.70
2023-03-20T14:06:32.540Z,11.90
2023-03-20T14:09:00.954Z,8.60
2023-03-20T14:11:36.518Z,11.95
2023-03-20T14:14:33.850Z,10.43
2023-03-20T14:17:22.356Z,7.60
2023-03-20T14:19:50.776Z,8.52
2023-03-20T14:22:34.018Z,13.05
2023-03-20T14:25:07.379Z,8.45
2023-03-20T14:27:58.353Z,7.43
2023-03-20T14:30:31.105Z,11.63
2023-03-20T14:33:31.243Z,11.40
2023-03-20T14:36:04.138Z,10.82
2023-03-20T14:38:44.654Z,7.43
2023-03-20T14:41:27.402Z,7.80
2023-03-20T14:44:16.058Z,9.57
2023-03-20T14:46:42.710Z,13.18
2023-03-20T14:49:42.709Z,9.43
2023-03-20T14:52:52.823Z,7.68
2023-03-20T14:55:19.460Z,7.13
2023-03-20T14:57:56.101Z,12.18
2023-03-20T15:00:28.226Z,6.57
2023-03-20T15:03:11.380Z,12.43
2023-03-20T15:05:39.583Z,8.02
2023-03-20T15:08:22.184Z,9.63
2023-03-20T15:10:56.909Z,13.75
2023-03-20T15:13:25.285Z,8.70
2023-03-20T15:16:06.694Z,6.78
2023-03-20T15:18:41.710Z,10.95
2023-03-20T15:21:41.221Z,7.57
2023-03-20T15:24:16.491Z,12.75
2023-03-20T15:26:43.276Z,11.30
2023-03-20T15:29:16.939Z,8.10
2023-03-20T15:31:43.936Z,6.50
2023-03-20T15:34:22.383Z,6.13
2023-03-20T15:36:50.756Z,9.40
2023-03-20T15:39:27.621Z,6.68
2023-03-20T15:42:01.954Z,8.40
2023-03-20T15:44:38.019Z,6.60
2023-03-20T15:47:10.688Z,9.23
2023-03-20T15:49:41.387Z,11.85
2023-03-20T15:52:21.510Z,9.77
2023-03-20T15:54:49.456Z,6.00
2023-03-20T15:57:25.435Z,7.40
2023-03-20T15:59:53.020Z,8.82
2023-03-20T16:02:20.601Z,5.43
2023-03-20T16:04:54.105Z,8.05
2023-03-20T16:07:30.929Z,12.98
2023-03-20T16:09:59.931Z,9.15
2023-03-20T16:12:27.520Z,13.18
2023-03-20T16:14:56.029Z,11.13
2023-03-20T16:17:25.127Z,8.60
2023-03-20T16:19:52.058Z,11.40
2023-03-20T16:22:30.233Z,10.50
2023-03-20T16:25:01.258Z,10.10
2023-03-20T16:27:36.543Z,14.70
2023-03-20T16:30:17.536Z,11.95
2023-03-20T16:32:47.520Z,10.18
2023-03-20T16:35:25.298Z,12.15
2023-03-20T16:38:01.279Z,10.45
2023-03-20T16:40:28.575Z,6.38
2023-03-20T16:42:57.169Z,11.48
2023-03-20T16:45:32.108Z,12.05
2023-03-20T16:48:11.233Z,9.87
2023-03-20T16:50:48.191Z,9.95
2023-03-20T16:53:17.436Z,10.63
2023-03-20T16:55:50.752Z,18.50
2023-03-20T16:58:41.089Z,9.05
2023-03-20T17:01:16.189Z,11.05
2023-03-20T17:04:11.355Z,14.82
2023-03-20T17:06:49.793Z,9.40
2023-03-20T17:09:24.805Z,9.20
2023-03-20T17:12:18.174Z,13.05
2023-03-20T17:14:45.694Z,10.52
2023-03-20T17:17:14.814Z,11.20
2023-03-20T17:19:41.629Z,10.55
2023-03-20T17:22:26.082Z,8.32
2023-03-20T17:24:53.001Z,6.78
2023-03-20T17:27:21.044Z,10.15
2023-03-20T17:29:51.491Z,7.72
2023-03-20T17:32:23.968Z,5.15
2023-03-20T17:34:51.305Z,7.20
2023-03-20T17:37:29.905Z,8.05
2023-03-20T17:39:57.056Z,8.30
2023-03-20T17:42:31.125Z,12.35
2023-03-20T17:44:59.525Z,7.68
2023-03-20T17:47:28.917Z,6.60
2023-03-20T17:49:55.989Z,19.65
2023-03-20T17:52:26.342Z,9.50
2023-03-20T17:54:53.595Z,6.75
2023-03-20T17:57:37.075Z,6.53
2023-03-20T18:00:17.327Z,8.95
2023-03-20T18:02:44.110Z,8.15
2023-03-20T18:05:11.161Z,7.40
2023-03-20T18:07:38.318Z,8.15
2023-03-20T18:10:06.990Z,10.55
2023-03-20T18:12:34.558Z,7.07
2023-03-20T18:15:01.627Z,9.90
2023-03-20T18:17:28.407Z,7.07
2023-03-20T18:19:55.258Z,12.48
2023-03-20T18:22:21.990Z,9.18
2023-03-20T18:24:48.823Z,8.88
2023-03-20T18:27:15.719Z,9.98
2023-03-20T18:29:42.618Z,9.55
2023-03-20T18:32:09.430Z,7.57
2023-03-20T18:34:36.160Z,10.00
2023-03-20T18:37:04.594Z,5.00
2023-03-20T18:39:31.258Z,12.48
2023-03-20T18:41:57.898Z,8.45
2023-03-20T18:44:24.642Z,10.15
2023-03-20T18:46:51.500Z,11.23
2023-03-20T18:49:19.427Z,6.68
2023-03-20T18:51:46.384Z,12.68
2023-03-20T18:54:13.307Z,6.40
2023-03-20T18:56:40.675Z,10.00
2023-03-20T18:59:12.316Z,8.18
2023-03-20T19:01:39.374Z,6.05
2023-03-20T19:04:06.278Z,6.40
2023-03-20T19:06:33.357Z,11.95
2023-03-20T19:09:05.176Z,10.48
2023-03-20T19:11:32.045Z,14.43
2023-03-20T19:13:58.812Z,9.20
2023-03-20T19:16:28.544Z,8.07
2023-03-20T19:19:01.507Z,7.32
2023-03-20T19:21:30.137Z,9.57
2023-03-20T19:24:00.225Z,8.30
2023-03-20T19:26:30.260Z,9.55
2023-03-20T19:28:59.132Z,8.07
2023-03-20T19:31:26.596Z,6.85
2023-03-20T19:33:55.966Z,10.82
2023-03-20T19:36:34.701Z,8.23
2023-03-20T19:39:04.408Z,7.22
2023-03-20T19:41:32.440Z,15.02
2023-03-20T19:44:01.140Z,7.47
2023-03-20T19:46:44.043Z,9.52
2023-03-20T19:49:23.548Z,7.18
2023-03-20T19:51:56.404Z,4.57
2023-03-20T19:54:23.172Z,6.20
2023-03-20T19:56:49.810Z,10.65
2023-03-20T19:59:17.140Z,13.80
2023-03-20T20:01:45.477Z,12.52
2023-03-20T20:04:12.404Z,8.68
2023-03-20T20:06:39.877Z,10.75
2023-03-20T20:09:07.033Z,10.25
2023-03-20T20:11:33.723Z,16.60
2023-03-20T20:14:09.765Z,7.15
2023-03-20T20:16:40.024Z,9.65
2023-03-20T20:19:07.391Z,9.27
2023-03-20T20:24:21.889Z,9.52
2023-03-20T20:27:03.508Z,11.20
2023-03-20T20:29:39.807Z,10.93
2023-03-20T20:32:06.535Z,4.70
2023-03-20T20:38:02.846Z,10.98
2023-03-20T20:40:12.158Z,8.68
2023-03-20T20:42:39.201Z,9.15
2023-03-20T20:45:09.226Z,11.43
2023-03-20T20:47:35.921Z,9.43
2023-03-20T20:50:03.992Z,14.85
2023-03-20T20:52:35.482Z,8.38
2023-03-20T20:55:19.423Z,9.30
2023-03-20T20:57:49.070Z,13.25
2023-03-20T21:00:17.008Z,9.45
2023-03-20T21:02:43.833Z,8.98
2023-03-20T21:05:16.690Z,12.32
2023-03-20T21:10:46.971Z,12.82
2023-03-20T21:13:15.550Z,5.78
2023-03-20T21:15:43.282Z,19.25
2023-03-20T21:18:10.681Z,11.00
2023-03-20T21:20:37.499Z,10.60
2023-03-20T21:23:04.695Z,11.05
2023-03-20T21:25:40.596Z,11.05
2023-03-20T21:28:09.818Z,15.82
2023-03-20T21:30:44.093Z,14.82
2023-03-20T21:33:23.545Z,20.73
2023-03-20T21:35:52.439Z,9.30
2023-03-20T21:38:58.386Z,13.98
2023-03-20T21:41:11.381Z,13.85
2023-03-20T21:43:39.463Z,12.88
2023-03-20T21:46:42.271Z,15.20
2023-03-20T21:52:35.944Z,10.10
2023-03-20T21:58:10.281Z,11.88
2023-03-20T22:02:49.134Z,11.98
2023-03-20T22:05:50.422Z,12.65
2023-03-20T22:08:58.360Z,8.50
2023-03-20T22:11:35.089Z,9.65
2023-03-20T22:14:39.083Z,11.82
2023-03-20T22:17:29.896Z,11.13
2023-03-20T22:20:07.143Z,10.32
2023-03-20T22:22:55.227Z,9.27
2023-03-20T22:25:25.891Z,6.95
2023-03-20T22:28:08.484Z,9.60
2023-03-20T22:34:16.044Z,8.38
2023-03-20T22:36:38.511Z,8.55
2023-03-20T22:42:18.456Z,11.88
2023-03-20T22:44:56.887Z,10.63
2023-03-20T22:47:05.397Z,10.00
2023-03-20T22:49:32.144Z,9.48
2023-03-20T22:52:19.994Z,16.73
2023-03-20T22:54:45.546Z,12.32
2023-03-20T22:57:12.271Z,7.43
2023-03-20T22:59:39.095Z,9.77
2023-03-20T23:02:06.233Z,8.77
2023-03-20T23:04:32.922Z,7.88
2023-03-20T23:07:01.669Z,9.32
2023-03-20T23:09:29.454Z,11.85
2023-03-20T23:11:56.226Z,12.25
2023-03-20T23:14:23.633Z,10.65
2023-03-20T23:16:51.647Z,13.18
2023-03-20T23:19:18.366Z,6.00
2023-03-20T23:21:45.076Z,7.55
2023-03-20T23:24:11.792Z,7.00
2023-03-20T23:26:38.528Z,10.18
2023-03-20T23:29:05.752Z,15.35
2023-03-20T23:31:32.635Z,7.18
2023-03-20T23:33:59.496Z,10.30
2023-03-20T23:36:37.187Z,15.50
2023-03-20T23:39:10.726Z,11.75
2023-03-20T23:44:25.825Z,8.43
2023-03-20T23:46:53.060Z,12.55
2023-03-20T23:49:19.870Z,8.55
2023-03-20T23:51:46.856Z,12.65
2023-03-20T23:54:14.163Z,13.30
2023-03-20T23:56:40.991Z,13.75
2023-03-20T23:59:20.644Z,9.25
